createdAt,value
2022-08-26T00:01:09.545Z,19.87
2022-08-26T00:03:39.215Z,19.78
2022-08-26T00:06:08.809Z,19.80
2022-08-26T00:08:40.165Z,19.77
2022-08-26T00:11:11.074Z,19.71
2022-08-26T00:13:41.465Z,19.67
2022-08-26T00:16:18.838Z,19.63
2022-08-26T00:18:47.312Z,19.65
2022-08-26T00:21:15.808Z,19.66
2022-08-26T00:23:45.487Z,19.54
2022-08-26T00:26:15.000Z,19.51
2022-08-26T00:28:43.606Z,19.61
2022-08-26T00:31:12.305Z,19.48
2022-08-26T00:33:42.899Z,19.44
2022-08-26T00:36:19.995Z,19.34
2022-08-26T00:38:49.130Z,19.39
2022-08-26T00:41:20.727Z,19.36
2022-08-26T00:43:50.317Z,19.44
2022-08-26T00:46:25.282Z,19.46
2022-08-26T00:49:04.041Z,19.29
2022-08-26T00:51:48.656Z,19.10
2022-08-26T00:54:22.058Z,19.06
2022-08-26T00:56:57.617Z,19.14
2022-08-26T00:59:32.939Z,19.19
2022-08-26T01:02:03.306Z,19.20
2022-08-26T01:04:37.924Z,19.16
2022-08-26T01:07:06.887Z,19.14
2022-08-26T01:09:36.196Z,18.91
2022-08-26T01:12:06.699Z,18.77
2022-08-26T01:14:38.024Z,18.79
2022-08-26T01:17:10.486Z,18.89
2022-08-26T01:19:47.274Z,18.90
2022-08-26T01:22:22.808Z,18.69
2022-08-26T01:24:59.770Z,18.57
2022-08-26T01:27:32.579Z,18.58
2022-08-26T01:30:03.470Z,18.70
2022-08-26T01:32:35.758Z,18.61
2022-08-26T01:35:09.702Z,18.71
2022-08-26T01:37:40.765Z,18.49
2022-08-26T01:40:21.534Z,18.57
2022-08-26T01:42:50.314Z,18.49
2022-08-26T01:45:26.065Z,18.62
2022-08-26T01:47:58.385Z,18.57
2022-08-26T01:50:34.427Z,18.69
2022-08-26T01:53:09.110Z,18.64
2022-08-26T01:55:47.146Z,18.71
2022-08-26T01:58:25.811Z,18.62
2022-08-26T02:00:55.729Z,18.77
2022-08-26T02:03:25.197Z,18.86
2022-08-26T02:05:57.604Z,19.00
2022-08-26T02:08:33.054Z,19.13
2022-08-26T02:11:05.641Z,19.11
2022-08-26T02:13:40.871Z,19.19
2022-08-26T02:16:11.015Z,19.22
2022-08-26T02:18:44.710Z,19.37
2022-08-26T02:21:16.994Z,19.37
2022-08-26T02:23:46.277Z,19.22
2022-08-26T02:26:19.481Z,19.15
2022-08-26T02:28:55.033Z,19.20
2022-08-26T02:31:24.679Z,19.13
2022-08-26T02:33:53.207Z,19.10
2022-08-26T02:36:23.568Z,19.12
2022-08-26T02:38:57.005Z,19.03
2022-08-26T02:41:28.504Z,19.02
2022-08-26T02:43:57.001Z,19.05
2022-08-26T02:46:27.955Z,19.02
2022-08-26T02:48:58.931Z,19.02
2022-08-26T02:51:27.355Z,18.91
2022-08-26T02:53:56.882Z,19.03
2022-08-26T02:56:27.248Z,19.10
2022-08-26T02:58:56.086Z,19.10
2022-08-26T03:01:27.921Z,19.11
2022-08-26T03:03:57.962Z,19.11
2022-08-26T03:06:26.545Z,19.18
2022-08-26T03:08:55.771Z,19.13
2022-08-26T03:11:27.545Z,19.15
2022-08-26T03:14:00.554Z,18.98
2022-08-26T03:16:33.768Z,18.92
2022-08-26T03:19:04.019Z,19.06
2022-08-26T03:21:33.305Z,19.10
2022-08-26T03:24:01.801Z,18.95
2022-08-26T03:26:31.036Z,18.88
2022-08-26T03:29:18.290Z,18.62
2022-08-26T03:31:47.061Z,18.62
2022-08-26T03:34:15.902Z,18.75
2022-08-26T03:36:44.789Z,18.84
2022-08-26T03:39:14.857Z,18.83
2022-08-26T03:41:45.080Z,18.69
2022-08-26T03:44:15.589Z,18.76
2022-08-26T03:46:46.334Z,18.87
2022-08-26T03:49:15.207Z,18.91
2022-08-26T03:51:43.781Z,18.94
2022-08-26T03:54:13.298Z,18.64
2022-08-26T03:56:41.757Z,18.68
2022-08-26T03:59:10.395Z,18.70
2022-08-26T04:01:40.189Z,18.81
2022-08-26T04:04:08.829Z,18.84
2022-08-26T04:06:42.417Z,18.93
2022-08-26T04:09:15.273Z,18.95
2022-08-26T04:11:46.140Z,18.90
2022-08-26T04:14:23.670Z,18.89
2022-08-26T04:16:57.494Z,18.98
2022-08-26T04:19:28.184Z,19.00
2022-08-26T04:21:56.701Z,19.15
2022-08-26T04:24:28.377Z,19.14
2022-08-26T04:26:57.816Z,19.10
2022-08-26T04:29:27.934Z,19.19
2022-08-26T04:31:58.046Z,19.23
2022-08-26T04:34:28.972Z,19.26
2022-08-26T04:36:58.633Z,19.21
2022-08-26T04:39:28.033Z,19.22
2022-08-26T04:41:57.669Z,19.33
2022-08-26T04:44:30.395Z,19.28
2022-08-26T04:47:01.128Z,19.28
2022-08-26T04:49:35.112Z,19.41
2022-08-26T04:52:04.987Z,19.44
2022-08-26T04:54:33.476Z,19.40
2022-08-26T04:57:02.511Z,19.36
2022-08-26T04:59:31.165Z,19.52
2022-08-26T05:02:02.482Z,19.54
2022-08-26T05:04:34.760Z,19.64
2022-08-26T05:07:03.769Z,19.70
2022-08-26T05:09:32.234Z,19.70
2022-08-26T05:12:00.737Z,19.63
2022-08-26T05:14:29.379Z,19.75
2022-08-26T05:16:57.996Z,19.71
2022-08-26T05:19:28.533Z,19.86
2022-08-26T05:21:57.126Z,20.02
2022-08-26T05:24:25.920Z,19.96
2022-08-26T05:26:58.141Z,19.96
2022-08-26T05:29:28.875Z,20.15
2022-08-26T05:31:57.494Z,20.09
2022-08-26T05:34:30.170Z,20.15
2022-08-26T05:36:59.433Z,20.26
2022-08-26T05:39:27.977Z,20.22
2022-08-26T05:41:57.209Z,20.04
2022-08-26T05:44:25.855Z,19.87
2022-08-26T05:46:54.391Z,19.65
2022-08-26T05:49:26.258Z,19.78
2022-08-26T05:51:56.474Z,20.09
2022-08-26T05:54:25.023Z,20.08
2022-08-26T05:56:53.852Z,20.02
2022-08-26T05:59:24.261Z,19.83
2022-08-26T06:01:54.514Z,20.17
2022-08-26T06:04:28.546Z,20.13
2022-08-26T06:07:00.089Z,19.99
2022-08-26T06:09:28.854Z,20.40
2022-08-26T06:11:59.075Z,20.37
2022-08-26T06:14:27.664Z,20.64
2022-08-26T06:16:57.453Z,20.76
2022-08-26T06:19:25.903Z,20.90
2022-08-26T06:22:23.840Z,20.90
2022-08-26T06:25:10.110Z,20.80
2022-08-26T06:27:38.809Z,21.00
2022-08-26T06:30:09.900Z,21.18
2022-08-26T06:32:38.399Z,21.25
2022-08-26T06:35:11.864Z,21.25
2022-08-26T06:37:42.882Z,21.45
2022-08-26T06:40:13.069Z,21.51
2022-08-26T06:42:41.996Z,21.68
2022-08-26T06:45:12.577Z,21.63
2022-08-26T06:47:41.096Z,21.88
2022-08-26T06:50:10.351Z,21.62
2022-08-26T06:52:38.925Z,22.07
2022-08-26T06:55:10.751Z,22.41
2022-08-26T06:57:41.112Z,22.56
2022-08-26T07:00:12.679Z,22.91
2022-08-26T07:02:41.137Z,22.99
2022-08-26T07:05:16.030Z,23.17
2022-08-26T07:07:44.549Z,23.31
2022-08-26T07:10:14.832Z,23.40
2022-08-26T07:12:43.812Z,23.49
2022-08-26T07:15:15.738Z,23.31
2022-08-26T07:17:44.627Z,23.09
2022-08-26T07:20:13.672Z,23.29
2022-08-26T07:22:42.522Z,23.54
2022-08-26T07:25:11.616Z,23.43
2022-08-26T07:27:41.539Z,23.33
2022-08-26T07:30:11.691Z,23.50
2022-08-26T07:32:44.320Z,23.61
2022-08-26T07:35:12.888Z,22.98
2022-08-26T07:37:41.311Z,23.44
2022-08-26T07:40:11.829Z,23.64
2022-08-26T07:42:41.792Z,23.89
2022-08-26T07:45:10.617Z,23.75
2022-08-26T07:47:39.109Z,23.87
2022-08-26T07:50:09.010Z,24.29
2022-08-26T07:52:38.732Z,24.45
2022-08-26T07:55:10.505Z,24.52
2022-08-26T07:57:39.895Z,24.71
2022-08-26T08:00:15.976Z,25.30
2022-08-26T08:02:45.646Z,25.71
2022-08-26T08:05:23.489Z,25.94
2022-08-26T08:08:26.717Z,26.37
2022-08-26T08:10:53.875Z,26.63
2022-08-26T08:13:22.554Z,26.58
2022-08-26T08:15:53.505Z,26.70
2022-08-26T08:18:23.259Z,27.12
2022-08-26T08:20:59.189Z,27.64
2022-08-26T08:23:34.303Z,27.81
2022-08-26T08:26:05.822Z,27.94
2022-08-26T08:28:37.445Z,28.32
2022-08-26T08:31:11.317Z,28.02
2022-08-26T08:33:39.864Z,27.57
2022-08-26T08:36:09.295Z,27.36
2022-08-26T08:38:37.829Z,27.23
2022-08-26T08:41:32.498Z,27.42
2022-08-26T08:44:02.947Z,27.25
2022-08-26T08:46:33.023Z,28.16
2022-08-26T08:49:04.072Z,27.70
2022-08-26T08:51:44.911Z,27.61
2022-08-26T08:54:14.131Z,28.03
2022-08-26T08:56:52.896Z,28.53
2022-08-26T08:59:25.896Z,28.63
2022-08-26T09:02:11.126Z,28.67
2022-08-26T09:05:21.398Z,28.89
2022-08-26T09:07:57.222Z,28.69
2022-08-26T09:10:36.155Z,28.79
2022-08-26T09:13:13.702Z,28.75
2022-08-26T09:16:00.462Z,28.17
2022-08-26T09:19:04.557Z,28.90
2022-08-26T09:21:34.156Z,29.14
2022-08-26T09:24:02.809Z,29.50
2022-08-26T09:26:47.393Z,29.54
2022-08-26T09:29:27.827Z,29.86
2022-08-26T09:32:19.553Z,29.94
2022-08-26T09:35:01.875Z,30.15
2022-08-26T09:37:41.654Z,29.96
2022-08-26T09:40:27.915Z,29.72
2022-08-26T09:43:22.285Z,29.69
2022-08-26T09:45:58.510Z,29.71
2022-08-26T09:48:36.234Z,29.99
2022-08-26T09:51:32.100Z,29.45
2022-08-26T09:54:05.713Z,29.08
2022-08-26T09:56:39.973Z,28.58
2022-08-26T09:59:12.069Z,28.80
2022-08-26T10:01:44.980Z,28.43
2022-08-26T10:04:21.733Z,28.11
2022-08-26T10:07:02.058Z,28.97
2022-08-26T10:09:36.710Z,29.24
2022-08-26T10:12:11.953Z,28.91
2022-08-26T10:14:48.961Z,29.51
2022-08-26T10:17:31.019Z,29.87
2022-08-26T10:20:13.634Z,29.77
2022-08-26T10:23:02.273Z,29.41
2022-08-26T10:25:47.344Z,29.62
2022-08-26T10:28:33.064Z,30.60
2022-08-26T10:31:14.766Z,31.00
2022-08-26T10:33:44.645Z,31.65
2022-08-26T10:36:52.335Z,32.18
2022-08-26T10:39:37.045Z,32.38
2022-08-26T10:42:15.537Z,32.29
2022-08-26T10:44:46.400Z,32.26
2022-08-26T10:47:25.605Z,32.20
2022-08-26T10:50:03.073Z,32.10
2022-08-26T10:52:53.976Z,31.30
2022-08-26T10:55:34.914Z,31.53
2022-08-26T10:58:26.188Z,32.12
2022-08-26T11:01:24.147Z,32.28
2022-08-26T11:04:06.214Z,33.26
2022-08-26T11:06:37.166Z,33.89
2022-08-26T11:09:09.593Z,34.35
2022-08-26T11:11:48.385Z,34.15
2022-08-26T11:14:45.990Z,34.29
2022-08-26T11:17:58.048Z,34.27
2022-08-26T11:20:39.076Z,34.82
2022-08-26T11:23:50.752Z,35.64
2022-08-26T11:26:37.726Z,36.56
2022-08-26T11:29:59.564Z,37.39
2022-08-26T11:32:49.408Z,37.16
2022-08-26T11:35:53.915Z,36.60
2022-08-26T11:38:29.328Z,35.49
2022-08-26T11:41:11.449Z,34.18
2022-08-26T11:43:42.566Z,33.50
2022-08-26T11:46:14.005Z,32.63
2022-08-26T11:48:45.014Z,31.99
2022-08-26T11:51:25.599Z,30.37
2022-08-26T11:54:11.747Z,28.25
2022-08-26T11:56:43.895Z,26.13
2022-08-26T11:59:19.757Z,22.36
2022-08-26T12:01:54.543Z,20.39
2022-08-26T12:04:31.204Z,19.33
2022-08-26T12:07:02.452Z,19.19
2022-08-26T12:09:36.739Z,19.39
2022-08-26T12:12:15.260Z,19.61
2022-08-26T12:14:44.727Z,19.84
2022-08-26T12:17:19.864Z,20.11
2022-08-26T12:19:51.164Z,20.38
2022-08-26T12:22:24.303Z,20.38
2022-08-26T12:24:56.754Z,20.23
2022-08-26T12:27:29.155Z,20.15
2022-08-26T12:30:09.450Z,20.30
2022-08-26T12:32:56.563Z,20.58
2022-08-26T12:35:28.695Z,20.82
2022-08-26T12:37:59.209Z,21.11
2022-08-26T12:40:39.291Z,21.23
2022-08-26T12:43:10.695Z,21.25
2022-08-26T12:45:43.017Z,21.10
2022-08-26T12:48:26.803Z,20.65
2022-08-26T12:50:55.802Z,20.76
2022-08-26T12:53:28.101Z,20.97
2022-08-26T12:56:00.115Z,21.05
2022-08-26T12:58:33.234Z,20.88
2022-08-26T13:01:24.173Z,21.00
2022-08-26T13:03:54.087Z,21.05
2022-08-26T13:06:31.238Z,21.15
2022-08-26T13:09:02.873Z,21.24
2022-08-26T13:11:35.632Z,21.37
2022-08-26T13:14:08.821Z,21.58
2022-08-26T13:16:39.291Z,21.73
2022-08-26T13:19:13.190Z,21.71
2022-08-26T13:21:47.811Z,21.63
2022-08-26T13:24:23.062Z,21.50
2022-08-26T13:26:52.382Z,21.17
2022-08-26T13:29:21.356Z,21.07
2022-08-26T13:31:50.710Z,20.95
2022-08-26T13:34:23.889Z,21.25
2022-08-26T13:36:56.321Z,21.18
2022-08-26T13:39:26.801Z,21.03
2022-08-26T13:41:56.062Z,21.08
2022-08-26T13:44:24.647Z,21.00
2022-08-26T13:46:53.691Z,21.34
2022-08-26T13:49:23.593Z,21.63
2022-08-26T13:51:52.101Z,21.74
2022-08-26T13:54:21.219Z,22.07
2022-08-26T13:56:49.648Z,22.21
2022-08-26T13:59:18.112Z,22.09
2022-08-26T14:01:47.403Z,22.06
2022-08-26T14:04:15.897Z,22.01
2022-08-26T14:06:52.407Z,21.78
2022-08-26T14:09:20.837Z,21.77
2022-08-26T14:14:23.778Z,21.39
2022-08-26T14:16:59.635Z,21.51
2022-08-26T14:19:30.649Z,21.76
2022-08-26T14:22:01.725Z,21.84
2022-08-26T14:24:30.839Z,21.87
2022-08-26T14:26:59.424Z,21.97
2022-08-26T14:29:28.294Z,22.06
2022-08-26T14:31:59.614Z,22.28
2022-08-26T14:34:28.150Z,22.30
2022-08-26T14:36:56.630Z,22.11
2022-08-26T14:39:26.444Z,21.76
2022-08-26T14:41:57.981Z,21.57
2022-08-26T14:44:32.061Z,21.69
2022-08-26T14:47:03.418Z,21.62
2022-08-26T14:49:32.182Z,21.84
2022-08-26T14:52:00.785Z,22.18
2022-08-26T14:54:29.719Z,22.32
2022-08-26T14:57:03.498Z,22.70
2022-08-26T14:59:35.236Z,23.08
2022-08-26T15:02:04.869Z,23.26
2022-08-26T15:04:33.610Z,23.58
2022-08-26T15:07:03.205Z,23.80
2022-08-26T15:09:37.287Z,23.73
2022-08-26T15:12:06.602Z,23.83
2022-08-26T15:14:35.072Z,23.98
2022-08-26T15:17:03.604Z,23.74
2022-08-26T15:19:32.198Z,23.35
2022-08-26T15:22:00.699Z,23.41
2022-08-26T15:24:29.947Z,23.22
2022-08-26T15:26:59.783Z,23.20
2022-08-26T15:29:28.527Z,23.16
2022-08-26T15:31:57.611Z,23.24
2022-08-26T15:34:26.831Z,23.24
2022-08-26T15:36:55.814Z,23.29
2022-08-26T15:39:24.967Z,23.19
2022-08-26T15:41:55.980Z,22.96
2022-08-26T15:44:27.796Z,23.17
2022-08-26T15:46:58.791Z,23.28
2022-08-26T15:49:28.459Z,22.79
2022-08-26T15:51:57.167Z,23.28
2022-08-26T15:54:25.746Z,23.28
2022-08-26T15:56:54.289Z,23.01
2022-08-26T15:59:24.809Z,22.87
2022-08-26T16:01:53.579Z,22.89
2022-08-26T16:04:22.481Z,22.90
2022-08-26T16:06:52.155Z,22.56
2022-08-26T16:09:24.453Z,22.75
2022-08-26T16:11:53.273Z,23.02
2022-08-26T16:14:22.657Z,23.14
2022-08-26T16:16:52.576Z,23.46
2022-08-26T16:19:22.061Z,23.74
2022-08-26T16:21:51.473Z,23.98
2022-08-26T16:24:24.860Z,23.83
2022-08-26T16:26:55.871Z,23.83
2022-08-26T16:29:24.517Z,24.03
2022-08-26T16:31:54.703Z,24.17
2022-08-26T16:34:23.690Z,24.19
2022-08-26T16:36:53.037Z,24.33
2022-08-26T16:39:21.489Z,24.35
2022-08-26T16:41:51.247Z,24.36
2022-08-26T16:44:19.755Z,24.20
2022-08-26T16:46:49.827Z,24.25
2022-08-26T16:49:24.414Z,23.88
2022-08-26T16:51:52.901Z,23.97
2022-08-26T16:54:21.365Z,23.83
2022-08-26T16:56:49.811Z,23.88
2022-08-26T16:59:18.289Z,23.90
2022-08-26T17:01:46.741Z,23.93
2022-08-26T17:04:15.242Z,24.04
2022-08-26T17:06:45.041Z,24.03
2022-08-26T17:09:13.707Z,23.88
2022-08-26T17:11:42.180Z,23.86
2022-08-26T17:14:10.949Z,23.55
2022-08-26T17:16:39.558Z,23.29
2022-08-26T17:19:08.246Z,23.23
2022-08-26T17:21:40.604Z,23.09
2022-08-26T17:24:10.433Z,23.02
2022-08-26T17:26:39.191Z,22.99
2022-08-26T17:29:08.066Z,22.83
2022-08-26T17:31:36.590Z,22.59
2022-08-26T17:34:05.448Z,22.17
2022-08-26T17:36:34.270Z,22.13
2022-08-26T17:39:02.765Z,22.15
2022-08-26T17:41:32.963Z,22.16
2022-08-26T17:44:01.500Z,22.08
2022-08-26T17:46:33.237Z,22.22
2022-08-26T17:49:03.696Z,22.29
2022-08-26T17:51:32.738Z,22.16
2022-08-26T17:54:01.151Z,22.10
2022-08-26T17:56:32.040Z,21.97
2022-08-26T17:59:02.403Z,21.91
2022-08-26T18:01:33.493Z,21.77
2022-08-26T18:04:02.141Z,21.78
2022-08-26T18:06:31.579Z,21.59
2022-08-26T18:09:01.306Z,21.44
2022-08-26T18:11:31.164Z,21.57
2022-08-26T18:14:01.603Z,21.49
2022-08-26T18:16:34.092Z,21.30
2022-08-26T18:19:02.598Z,21.22
2022-08-26T18:21:31.109Z,21.34
2022-08-26T18:23:59.865Z,21.48
2022-08-26T18:26:32.385Z,21.51
2022-08-26T18:29:02.917Z,21.54
2022-08-26T18:31:31.861Z,21.44
2022-08-26T18:34:02.015Z,21.34
2022-08-26T18:36:34.777Z,21.39
2022-08-26T18:39:04.860Z,21.57
2022-08-26T18:41:43.050Z,21.59
2022-08-26T18:44:14.279Z,21.54
2022-08-26T18:46:44.614Z,21.60
2022-08-26T18:49:14.048Z,21.72
2022-08-26T18:51:44.269Z,21.80
2022-08-26T18:54:13.734Z,21.72
2022-08-26T18:56:43.717Z,21.77
2022-08-26T18:59:14.986Z,21.52
2022-08-26T19:01:44.090Z,21.45
2022-08-26T19:04:15.749Z,21.64
2022-08-26T19:06:47.994Z,21.78
2022-08-26T19:09:17.387Z,21.68
2022-08-26T19:11:47.183Z,21.74
2022-08-26T19:14:20.008Z,21.61
2022-08-26T19:16:52.440Z,21.26
2022-08-26T19:19:23.806Z,21.13
2022-08-26T19:21:52.773Z,21.01
2022-08-26T19:24:22.574Z,21.08
2022-08-26T19:26:58.769Z,21.18
2022-08-26T19:29:32.426Z,21.34
2022-08-26T19:32:01.872Z,21.33
2022-08-26T19:34:30.632Z,21.42
2022-08-26T19:36:59.603Z,21.19
2022-08-26T19:39:28.667Z,21.02
2022-08-26T19:41:57.305Z,21.19
2022-08-26T19:44:43.865Z,21.17
2022-08-26T19:47:15.198Z,21.24
2022-08-26T19:49:43.675Z,21.24
2022-08-26T19:52:12.442Z,21.14
2022-08-26T19:54:41.958Z,21.08
2022-08-26T19:57:11.289Z,21.00
2022-08-26T19:59:40.160Z,20.96
2022-08-26T20:02:11.247Z,21.00
2022-08-26T20:04:41.790Z,21.00
2022-08-26T20:07:13.064Z,20.99
2022-08-26T20:09:47.515Z,20.80
2022-08-26T20:12:17.346Z,20.84
2022-08-26T20:14:45.989Z,20.86
2022-08-26T20:17:16.034Z,20.78
2022-08-26T20:20:03.225Z,20.72
2022-08-26T20:22:32.700Z,20.68
2022-08-26T20:25:01.254Z,20.66
2022-08-26T20:27:34.368Z,20.60
2022-08-26T20:30:10.753Z,20.60
2022-08-26T20:32:40.911Z,20.42
2022-08-26T20:35:14.501Z,20.43
2022-08-26T20:37:43.857Z,20.34
2022-08-26T20:40:14.645Z,20.41
2022-08-26T20:42:43.490Z,20.33
2022-08-26T20:45:12.825Z,20.29
2022-08-26T20:47:41.671Z,20.36
2022-08-26T20:50:11.804Z,20.34
2022-08-26T20:52:40.263Z,20.38
2022-08-26T20:55:10.342Z,20.34
2022-08-26T20:57:38.973Z,20.34
2022-08-26T21:00:08.953Z,20.39
2022-08-26T21:02:37.404Z,20.38
2022-08-26T21:05:07.417Z,20.39
2022-08-26T21:07:37.422Z,20.29
2022-08-26T21:10:06.620Z,20.41
2022-08-26T21:12:35.601Z,20.32
2022-08-26T21:15:04.176Z,20.32
2022-08-26T21:17:32.892Z,20.33
2022-08-26T21:20:01.394Z,20.34
2022-08-26T21:22:30.869Z,20.09
2022-08-26T21:25:01.274Z,20.16
2022-08-26T21:27:29.700Z,20.13
2022-08-26T21:29:58.327Z,20.09
2022-08-26T21:32:26.903Z,20.07
2022-08-26T21:34:56.895Z,20.09
2022-08-26T21:37:28.979Z,20.05
2022-08-26T21:40:01.918Z,20.09
2022-08-26T21:42:34.476Z,20.08
2022-08-26T21:45:04.736Z,20.01
2022-08-26T21:47:33.479Z,19.94
2022-08-26T21:50:01.968Z,19.92
2022-08-26T21:52:30.425Z,19.80
2022-08-26T21:55:02.303Z,19.72
2022-08-26T21:57:31.406Z,19.63
2022-08-26T22:00:00.424Z,19.56
2022-08-26T22:02:34.647Z,19.55
2022-08-26T22:05:03.179Z,19.55
2022-08-26T22:07:31.644Z,19.63
2022-08-26T22:10:02.147Z,19.63
2022-08-26T22:12:31.755Z,19.55
2022-08-26T22:15:00.351Z,19.57
2022-08-26T22:17:29.723Z,19.63
2022-08-26T22:19:58.220Z,19.57
2022-08-26T22:22:28.521Z,19.44
2022-08-26T22:24:57.016Z,19.46
2022-08-26T22:27:27.103Z,19.63
2022-08-26T22:29:55.542Z,19.75
2022-08-26T22:32:24.007Z,19.86
2022-08-26T22:34:52.534Z,19.86
2022-08-26T22:37:21.036Z,19.91
2022-08-26T22:39:49.445Z,19.92
2022-08-26T22:42:17.850Z,19.83
2022-08-26T22:44:47.705Z,19.73
2022-08-26T22:47:16.136Z,19.87
2022-08-26T22:49:44.590Z,19.93
2022-08-26T22:52:13.082Z,20.04
2022-08-26T22:54:41.557Z,19.93
2022-08-26T22:57:10.066Z,19.90
2022-08-26T22:59:38.541Z,19.89
2022-08-26T23:02:12.830Z,19.83
2022-08-26T23:04:41.970Z,19.83
2022-08-26T23:07:10.491Z,19.76
2022-08-26T23:09:38.986Z,19.55
2022-08-26T23:12:08.383Z,19.69
2022-08-26T23:14:37.307Z,19.63
2022-08-26T23:17:05.904Z,19.64
2022-08-26T23:19:35.779Z,19.76
2022-08-26T23:22:04.390Z,19.71
2022-08-26T23:24:33.873Z,19.67
2022-08-26T23:27:02.832Z,19.56
2022-08-26T23:29:31.771Z,19.49
2022-08-26T23:32:00.372Z,19.48
2022-08-26T23:34:46.346Z,19.31
2022-08-26T23:37:19.540Z,19.45
2022-08-26T23:39:48.732Z,19.31
2022-08-26T23:42:17.932Z,19.31
2022-08-26T23:44:46.655Z,19.38
2022-08-26T23:47:15.534Z,19.44
2022-08-26T23:49:44.235Z,19.46
2022-08-26T23:52:30.510Z,19.37
2022-08-26T23:55:00.457Z,19.42
2022-08-26T23:57:29.008Z,19.44
2022-08-26T23:59:57.854Z,19.28
